sensor_id;sensor_type;location;lat;lon;timestamp;P1;durP1;ratioP1;P2;durP2;ratioP2
76437;SDS011;65273;43.198;0.118;2023-04-03T00:02:14;7.68;;;3.28;;
76437;SDS011;65273;43.198;0.118;2023-04-03T00:04:40;10.85;;;3.33;;
76437;SDS011;65273;43.198;0.118;2023-04-03T00:07:05;10.48;;;3.03;;
76437;SDS011;65273;43.198;0.118;2023-04-03T00:09:31;7.45;;;3.85;;
76437;SDS011;65273;43.198;0.118;2023-04-03T00:11:56;8.75;;;3.17;;
76437;SDS011;65273;43.198;0.118;2023-04-03T00:14:22;5.40;;;3.63;;
76437;SDS011;65273;43.198;0.118;2023-04-03T00:16:47;8.88;;;3.80;;
76437;SDS011;65273;43.198;0.118;2023-04-03T00:19:13;11.40;;;3.72;;
76437;SDS011;65273;43.198;0.118;2023-04-03T00:21:38;7.95;;;3.28;;
76437;SDS011;65273;43.198;0.118;2023-04-03T00:24:05;8.75;;;3.55;;
76437;SDS011;65273;43.198;0.118;2023-04-03T00:26:30;9.00;;;4.30;;
76437;SDS011;65273;43.198;0.118;2023-04-03T00:28:56;9.00;;;4.25;;
76437;SDS011;65273;43.198;0.118;2023-04-03T00:31:21;8.65;;;4.10;;
76437;SDS011;65273;43.198;0.118;2023-04-03T00:33:47;12.93;;;5.18;;
76437;SDS011;65273;43.198;0.118;2023-04-03T00:36:12;9.82;;;5.13;;
76437;SDS011;65273;43.198;0.118;2023-04-03T00:38:38;10.55;;;5.05;;
76437;SDS011;65273;43.198;0.118;2023-04-03T00:41:03;12.95;;;4.60;;
76437;SDS011;65273;43.198;0.118;2023-04-03T00:43:29;10.38;;;5.07;;
76437;SDS011;65273;43.198;0.118;2023-04-03T00:45:56;20.05;;;5.82;;
76437;SDS011;65273;43.198;0.118;2023-04-03T00:48:29;20.70;;;5.90;;
76437;SDS011;65273;43.198;0.118;2023-04-03T00:50:55;10.80;;;5.32;;
76437;SDS011;65273;43.198;0.118;2023-04-03T00:53:26;10.18;;;4.90;;
76437;SDS011;65273;43.198;0.118;2023-04-03T00:55:54;9.05;;;5.53;;
76437;SDS011;65273;43.198;0.118;2023-04-03T00:58:21;12.77;;;5.25;;
76437;SDS011;65273;43.198;0.118;2023-04-03T01:00:53;9.48;;;4.25;;
76437;SDS011;65273;43.198;0.118;2023-04-03T01:03:22;8.93;;;4.50;;
76437;SDS011;65273;43.198;0.118;2023-04-03T01:05:48;11.02;;;4.53;;
76437;SDS011;65273;43.198;0.118;2023-04-03T01:08:13;7.20;;;4.25;;
76437;SDS011;65273;43.198;0.118;2023-04-03T01:10:39;9.80;;;4.10;;
76437;SDS011;65273;43.198;0.118;2023-04-03T01:13:17;9.00;;;4.30;;
76437;SDS011;65273;43.198;0.118;2023-04-03T01:15:44;11.40;;;4.70;;
76437;SDS011;65273;43.198;0.118;2023-04-03T01:18:10;10.75;;;4.97;;
76437;SDS011;65273;43.198;0.118;2023-04-03T01:20:50;9.20;;;4.90;;
76437;SDS011;65273;43.198;0.118;2023-04-03T01:26:12;8.75;;;4.40;;
76437;SDS011;65273;43.198;0.118;2023-04-03T01:28:38;14.35;;;4.70;;
76437;SDS011;65273;43.198;0.118;2023-04-03T01:34:16;13.40;;;4.25;;
76437;SDS011;65273;43.198;0.118;2023-04-03T01:36:41;16.77;;;4.60;;
76437;SDS011;65273;43.198;0.118;2023-04-03T01:39:07;8.00;;;4.13;;
76437;SDS011;65273;43.198;0.118;2023-04-03T01:41:33;12.95;;;3.67;;
76437;SDS011;65273;43.198;0.118;2023-04-03T01:43:59;10.30;;;4.30;;
76437;SDS011;65273;43.198;0.118;2023-04-03T01:46:24;13.18;;;4.38;;
76437;SDS011;65273;43.198;0.118;2023-04-03T01:48:50;11.77;;;4.15;;
76437;SDS011;65273;43.198;0.118;2023-04-03T01:51:18;10.90;;;5.03;;
76437;SDS011;65273;43.198;0.118;2023-04-03T01:53:43;9.90;;;3.83;;
76437;SDS011;65273;43.198;0.118;2023-04-03T01:56:09;9.70;;;3.88;;
76437;SDS011;65273;43.198;0.118;2023-04-03T01:58:34;13.73;;;4.45;;
76437;SDS011;65273;43.198;0.118;2023-04-03T02:01:00;12.52;;;4.07;;
76437;SDS011;65273;43.198;0.118;2023-04-03T02:03:26;12.80;;;4.00;;
76437;SDS011;65273;43.198;0.118;2023-04-03T02:05:52;9.88;;;3.45;;
76437;SDS011;65273;43.198;0.118;2023-04-03T02:08:17;12.13;;;3.95;;
76437;SDS011;65273;43.198;0.118;2023-04-03T02:10:43;10.82;;;4.07;;
76437;SDS011;65273;43.198;0.118;2023-04-03T02:13:12;14.27;;;4.20;;
76437;SDS011;65273;43.198;0.118;2023-04-03T02:15:38;11.05;;;3.45;;
76437;SDS011;65273;43.198;0.118;2023-04-03T02:18:04;14.35;;;3.90;;
76437;SDS011;65273;43.198;0.118;2023-04-03T02:20:30;14.25;;;3.50;;
76437;SDS011;65273;43.198;0.118;2023-04-03T02:22:55;15.15;;;4.00;;
76437;SDS011;65273;43.198;0.118;2023-04-03T02:25:21;13.80;;;3.95;;
76437;SDS011;65273;43.198;0.118;2023-04-03T02:27:46;12.38;;;3.90;;
76437;SDS011;65273;43.198;0.118;2023-04-03T02:30:12;11.75;;;3.90;;
76437;SDS011;65273;43.198;0.118;2023-04-03T02:32:39;8.45;;;3.67;;
76437;SDS011;65273;43.198;0.118;2023-04-03T02:35:05;9.65;;;3.80;;
76437;SDS011;65273;43.198;0.118;2023-04-03T02:37:32;8.30;;;3.90;;
76437;SDS011;65273;43.198;0.118;2023-04-03T02:39:57;8.63;;;3.55;;
76437;SDS011;65273;43.198;0.118;2023-04-03T02:42:23;8.23;;;3.50;;
76437;SDS011;65273;43.198;0.118;2023-04-03T02:44:48;8.10;;;3.63;;
76437;SDS011;65273;43.198;0.118;2023-04-03T02:47:14;7.45;;;3.42;;
76437;SDS011;65273;43.198;0.118;2023-04-03T02:49:39;10.73;;;3.88;;
76437;SDS011;65273;43.198;0.118;2023-04-03T02:52:05;8.38;;;4.47;;
76437;SDS011;65273;43.198;0.118;2023-04-03T02:54:30;8.75;;;3.75;;
76437;SDS011;65273;43.198;0.118;2023-04-03T02:56:56;7.55;;;4.25;;
76437;SDS011;65273;43.198;0.118;2023-04-03T02:59:22;6.55;;;4.10;;
76437;SDS011;65273;43.198;0.118;2023-04-03T03:01:48;9.77;;;4.32;;
76437;SDS011;65273;43.198;0.118;2023-04-03T03:04:13;8.32;;;4.45;;
76437;SDS011;65273;43.198;0.118;2023-04-03T03:06:39;9.82;;;4.20;;
76437;SDS011;65273;43.198;0.118;2023-04-03T03:09:05;12.52;;;4.03;;
76437;SDS011;65273;43.198;0.118;2023-04-03T03:11:30;9.38;;;4.25;;
76437;SDS011;65273;43.198;0.118;2023-04-03T03:13:56;9.60;;;3.53;;
76437;SDS011;65273;43.198;0.118;2023-04-03T03:16:22;11.38;;;3.80;;
76437;SDS011;65273;43.198;0.118;2023-04-03T03:18:47;5.53;;;3.33;;
76437;SDS011;65273;43.198;0.118;2023-04-03T03:21:12;8.15;;;3.30;;
76437;SDS011;65273;43.198;0.118;2023-04-03T03:23:38;10.23;;;3.15;;
76437;SDS011;65273;43.198;0.118;2023-04-03T03:26:05;6.97;;;2.50;;
76437;SDS011;65273;43.198;0.118;2023-04-03T03:28:32;4.15;;;2.65;;
76437;SDS011;65273;43.198;0.118;2023-04-03T03:30:58;4.70;;;2.33;;
76437;SDS011;65273;43.198;0.118;2023-04-03T03:33:24;4.07;;;2.10;;
76437;SDS011;65273;43.198;0.118;2023-04-03T03:35:51;4.45;;;2.10;;
76437;SDS011;65273;43.198;0.118;2023-04-03T03:38:17;3.42;;;2.08;;
76437;SDS011;65273;43.198;0.118;2023-04-03T03:40:43;2.10;;;1.90;;
76437;SDS011;65273;43.198;0.118;2023-04-03T03:43:08;3.67;;;2.20;;
76437;SDS011;65273;43.198;0.118;2023-04-03T03:45:34;3.50;;;1.95;;
76437;SDS011;65273;43.198;0.118;2023-04-03T03:47:59;3.38;;;2.10;;
76437;SDS011;65273;43.198;0.118;2023-04-03T03:50:25;4.07;;;2.40;;
76437;SDS011;65273;43.198;0.118;2023-04-03T03:52:50;5.90;;;2.17;;
76437;SDS011;65273;43.198;0.118;2023-04-03T03:55:16;4.32;;;2.05;;
76437;SDS011;65273;43.198;0.118;2023-04-03T03:57:41;4.25;;;2.30;;
76437;SDS011;65273;43.198;0.118;2023-04-03T04:00:07;4.50;;;2.33;;
76437;SDS011;65273;43.198;0.118;2023-04-03T04:02:33;6.97;;;2.55;;
76437;SDS011;65273;43.198;0.118;2023-04-03T04:04:59;6.68;;;2.72;;
76437;SDS011;65273;43.198;0.118;2023-04-03T04:07:24;6.60;;;2.53;;
76437;SDS011;65273;43.198;0.118;2023-04-03T04:09:53;6.68;;;2.42;;
76437;SDS011;65273;43.198;0.118;2023-04-03T04:12:18;3.65;;;2.22;;
76437;SDS011;65273;43.198;0.118;2023-04-03T04:14:44;5.90;;;2.60;;
76437;SDS011;65273;43.198;0.118;2023-04-03T04:17:11;6.47;;;2.45;;
76437;SDS011;65273;43.198;0.118;2023-04-03T04:19:37;5.65;;;2.80;;
76437;SDS011;65273;43.198;0.118;2023-04-03T04:22:03;3.53;;;2.35;;
76437;SDS011;65273;43.198;0.118;2023-04-03T04:24:28;2.67;;;2.42;;
76437;SDS011;65273;43.198;0.118;2023-04-03T04:26:54;4.45;;;2.42;;
76437;SDS011;65273;43.198;0.118;2023-04-03T04:29:20;6.30;;;3.42;;
76437;SDS011;65273;43.198;0.118;2023-04-03T04:31:45;2.42;;;2.22;;
76437;SDS011;65273;43.198;0.118;2023-04-03T04:34:11;5.10;;;2.88;;
76437;SDS011;65273;43.198;0.118;2023-04-03T04:36:38;3.40;;;2.75;;
76437;SDS011;65273;43.198;0.118;2023-04-03T04:39:03;6.03;;;2.97;;
76437;SDS011;65273;43.198;0.118;2023-04-03T04:41:29;6.05;;;2.65;;
76437;SDS011;65273;43.198;0.118;2023-04-03T04:43:54;6.32;;;2.25;;
76437;SDS011;65273;43.198;0.118;2023-04-03T04:46:20;4.53;;;2.28;;
76437;SDS011;65273;43.198;0.118;2023-04-03T04:48:46;6.35;;;2.95;;
76437;SDS011;65273;43.198;0.118;2023-04-03T04:51:11;3.65;;;2.67;;
76437;SDS011;65273;43.198;0.118;2023-04-03T04:53:37;5.07;;;2.55;;
76437;SDS011;65273;43.198;0.118;2023-04-03T04:56:02;5.35;;;2.40;;
76437;SDS011;65273;43.198;0.118;2023-04-03T04:58:28;5.78;;;3.67;;
76437;SDS011;65273;43.198;0.118;2023-04-03T05:01:03;5.55;;;2.92;;
76437;SDS011;65273;43.198;0.118;2023-04-03T05:03:34;5.65;;;2.80;;
76437;SDS011;65273;43.198;0.118;2023-04-03T05:06:01;3.13;;;2.65;;
76437;SDS011;65273;43.198;0.118;2023-04-03T05:08:26;4.20;;;2.50;;
76437;SDS011;65273;43.198;0.118;2023-04-03T05:10:52;4.95;;;2.35;;
76437;SDS011;65273;43.198;0.118;2023-04-03T05:13:18;4.78;;;2.00;;
76437;SDS011;65273;43.198;0.118;2023-04-03T05:15:44;3.15;;;1.90;;
76437;SDS011;65273;43.198;0.118;2023-04-03T05:18:10;3.33;;;1.88;;
76437;SDS011;65273;43.198;0.118;2023-04-03T05:20:35;7.93;;;2.20;;
76437;SDS011;65273;43.198;0.118;2023-04-03T05:23:02;3.65;;;1.88;;
76437;SDS011;65273;43.198;0.118;2023-04-03T05:25:27;2.35;;;1.83;;
76437;SDS011;65273;43.198;0.118;2023-04-03T05:27:53;3.42;;;1.77;;
76437;SDS011;65273;43.198;0.118;2023-04-03T05:30:18;3.45;;;1.70;;
76437;SDS011;65273;43.198;0.118;2023-04-03T05:32:44;2.78;;;1.90;;
76437;SDS011;65273;43.198;0.118;2023-04-03T05:35:09;2.85;;;1.95;;
76437;SDS011;65273;43.198;0.118;2023-04-03T05:37:35;3.20;;;1.80;;
76437;SDS011;65273;43.198;0.118;2023-04-03T05:40:02;2.20;;;1.85;;
76437;SDS011;65273;43.198;0.118;2023-04-03T05:42:28;5.47;;;2.00;;
76437;SDS011;65273;43.198;0.118;2023-04-03T05:44:54;3.17;;;2.10;;
76437;SDS011;65273;43.198;0.118;2023-04-03T05:47:20;2.25;;;2.13;;
76437;SDS011;65273;43.198;0.118;2023-04-03T05:49:45;2.20;;;1.98;;
76437;SDS011;65273;43.198;0.118;2023-04-03T05:52:21;4.35;;;1.88;;
76437;SDS011;65273;43.198;0.118;2023-04-03T05:54:56;2.95;;;1.98;;
76437;SDS011;65273;43.198;0.118;2023-04-03T05:57:22;2.40;;;1.55;;
76437;SDS011;65273;43.198;0.118;2023-04-03T05:59:47;5.38;;;2.00;;
76437;SDS011;65273;43.198;0.118;2023-04-03T06:02:20;3.42;;;1.90;;
76437;SDS011;65273;43.198;0.118;2023-04-03T06:04:47;5.13;;;2.10;;
76437;SDS011;65273;43.198;0.118;2023-04-03T06:07:16;3.03;;;1.95;;
76437;SDS011;65273;43.198;0.118;2023-04-03T06:09:44;8.30;;;3.10;;
76437;SDS011;65273;43.198;0.118;2023-04-03T06:12:10;5.82;;;3.30;;
76437;SDS011;65273;43.198;0.118;2023-04-03T06:14:36;7.15;;;4.00;;
76437;SDS011;65273;43.198;0.118;2023-04-03T06:17:01;5.50;;;3.03;;
76437;SDS011;65273;43.198;0.118;2023-04-03T06:19:27;3.00;;;2.50;;
76437;SDS011;65273;43.198;0.118;2023-04-03T06:21:53;4.07;;;2.83;;
76437;SDS011;65273;43.198;0.118;2023-04-03T06:24:18;4.55;;;2.65;;
76437;SDS011;65273;43.198;0.118;2023-04-03T06:26:46;3.00;;;2.70;;
76437;SDS011;65273;43.198;0.118;2023-04-03T06:29:12;3.00;;;2.75;;
76437;SDS011;65273;43.198;0.118;2023-04-03T06:31:37;4.63;;;3.30;;
76437;SDS011;65273;43.198;0.118;2023-04-03T06:34:03;5.55;;;2.78;;
76437;SDS011;65273;43.198;0.118;2023-04-03T06:36:29;4.82;;;3.17;;
76437;SDS011;65273;43.198;0.118;2023-04-03T06:38:55;6.60;;;3.67;;
76437;SDS011;65273;43.198;0.118;2023-04-03T06:41:20;4.93;;;3.65;;
76437;SDS011;65273;43.198;0.118;2023-04-03T06:43:46;5.07;;;3.55;;
76437;SDS011;65273;43.198;0.118;2023-04-03T06:46:15;5.05;;;3.40;;
76437;SDS011;65273;43.198;0.118;2023-04-03T06:48:42;2.92;;;2.60;;
76437;SDS011;65273;43.198;0.118;2023-04-03T06:51:18;2.90;;;2.55;;
76437;SDS011;65273;43.198;0.118;2023-04-03T06:53:47;5.60;;;2.45;;
76437;SDS011;65273;43.198;0.118;2023-04-03T06:56:14;5.63;;;2.65;;
76437;SDS011;65273;43.198;0.118;2023-04-03T06:58:40;5.65;;;3.20;;
76437;SDS011;65273;43.198;0.118;2023-04-03T07:01:07;5.95;;;3.35;;
76437;SDS011;65273;43.198;0.118;2023-04-03T07:03:32;3.85;;;2.85;;
76437;SDS011;65273;43.198;0.118;2023-04-03T07:05:57;6.25;;;3.63;;
76437;SDS011;65273;43.198;0.118;2023-04-03T07:08:23;15.70;;;7.45;;
76437;SDS011;65273;43.198;0.118;2023-04-03T07:10:51;4.13;;;2.97;;
76437;SDS011;65273;43.198;0.118;2023-04-03T07:13:16;11.38;;;6.43;;
76437;SDS011;65273;43.198;0.118;2023-04-03T07:15:42;8.25;;;3.67;;
76437;SDS011;65273;43.198;0.118;2023-04-03T07:18:07;8.07;;;3.17;;
76437;SDS011;65273;43.198;0.118;2023-04-03T07:20:33;3.45;;;3.10;;
76437;SDS011;65273;43.198;0.118;2023-04-03T07:22:58;3.95;;;2.88;;
76437;SDS011;65273;43.198;0.118;2023-04-03T07:25:24;4.70;;;3.13;;
76437;SDS011;65273;43.198;0.118;2023-04-03T07:27:50;6.85;;;3.83;;
76437;SDS011;65273;43.198;0.118;2023-04-03T07:30:15;3.42;;;2.92;;
76437;SDS011;65273;43.198;0.118;2023-04-03T07:32:41;7.85;;;3.13;;
76437;SDS011;65273;43.198;0.118;2023-04-03T07:35:07;3.17;;;2.72;;
76437;SDS011;65273;43.198;0.118;2023-04-03T07:37:32;5.60;;;2.92;;
76437;SDS011;65273;43.198;0.118;2023-04-03T07:39:58;3.90;;;2.40;;
76437;SDS011;65273;43.198;0.118;2023-04-03T07:42:24;2.78;;;2.58;;
76437;SDS011;65273;43.198;0.118;2023-04-03T07:44:52;3.95;;;2.63;;
76437;SDS011;65273;43.198;0.118;2023-04-03T07:47:18;3.22;;;2.60;;
76437;SDS011;65273;43.198;0.118;2023-04-03T07:49:45;2.50;;;2.28;;
76437;SDS011;65273;43.198;0.118;2023-04-03T07:52:11;3.08;;;2.17;;
76437;SDS011;65273;43.198;0.118;2023-04-03T07:54:37;3.95;;;2.53;;
76437;SDS011;65273;43.198;0.118;2023-04-03T07:57:02;3.15;;;2.42;;
76437;SDS011;65273;43.198;0.118;2023-04-03T07:59:28;4.00;;;2.70;;
76437;SDS011;65273;43.198;0.118;2023-04-03T08:01:53;2.72;;;2.15;;
76437;SDS011;65273;43.198;0.118;2023-04-03T08:04:19;3.00;;;2.53;;
76437;SDS011;65273;43.198;0.118;2023-04-03T08:06:44;7.10;;;2.47;;
76437;SDS011;65273;43.198;0.118;2023-04-03T08:09:10;3.47;;;2.05;;
76437;SDS011;65273;43.198;0.118;2023-04-03T08:11:35;3.30;;;2.20;;
76437;SDS011;65273;43.198;0.118;2023-04-03T08:14:04;3.47;;;2.10;;
76437;SDS011;65273;43.198;0.118;2023-04-03T08:16:29;2.63;;;1.65;;
76437;SDS011;65273;43.198;0.118;2023-04-03T08:18:55;2.90;;;2.35;;
76437;SDS011;65273;43.198;0.118;2023-04-03T08:21:20;2.25;;;1.80;;
76437;SDS011;65273;43.198;0.118;2023-04-03T08:23:47;2.17;;;1.70;;
76437;SDS011;65273;43.198;0.118;2023-04-03T08:26:17;3.70;;;1.92;;
76437;SDS011;65273;43.198;0.118;2023-04-03T08:28:45;2.90;;;1.90;;
76437;SDS011;65273;43.198;0.118;2023-04-03T08:31:12;2.75;;;1.90;;
76437;SDS011;65273;43.198;0.118;2023-04-03T08:33:40;3.85;;;1.98;;
76437;SDS011;65273;43.198;0.118;2023-04-03T08:36:06;2.22;;;2.05;;
76437;SDS011;65273;43.198;0.118;2023-04-03T08:38:39;2.60;;;2.40;;
76437;SDS011;65273;43.198;0.118;2023-04-03T08:44:15;2.53;;;2.13;;
76437;SDS011;65273;43.198;0.118;2023-04-03T08:49:37;3.78;;;2.35;;
76437;SDS011;65273;43.198;0.118;2023-04-03T08:52:10;5.57;;;2.83;;
76437;SDS011;65273;43.198;0.118;2023-04-03T08:54:41;5.90;;;2.55;;
76437;SDS011;65273;43.198;0.118;2023-04-03T08:57:15;4.20;;;2.75;;
76437;SDS011;65273;43.198;0.118;2023-04-03T08:59:42;3.45;;;2.60;;
76437;SDS011;65273;43.198;0.118;2023-04-03T09:02:51;3.28;;;2.42;;
76437;SDS011;65273;43.198;0.118;2023-04-03T09:04:58;3.55;;;2.67;;
76437;SDS011;65273;43.198;0.118;2023-04-03T09:07:33;8.07;;;2.67;;
76437;SDS011;65273;43.198;0.118;2023-04-03T09:10:05;4.82;;;2.25;;
76437;SDS011;65273;43.198;0.118;2023-04-03T09:12:37;4.05;;;2.75;;
76437;SDS011;65273;43.198;0.118;2023-04-03T09:23:27;6.00;;;2.70;;
76437;SDS011;65273;43.198;0.118;2023-04-03T09:25:50;6.63;;;3.47;;
76437;SDS011;65273;43.198;0.118;2023-04-03T09:28:19;8.13;;;3.00;;
76437;SDS011;65273;43.198;0.118;2023-04-03T09:30:44;3.42;;;2.88;;
76437;SDS011;65273;43.198;0.118;2023-04-03T09:33:11;4.38;;;3.22;;
76437;SDS011;65273;43.198;0.118;2023-04-03T09:35:37;3.83;;;3.33;;
76437;SDS011;65273;43.198;0.118;2023-04-03T09:40:35;4.20;;;3.20;;
76437;SDS011;65273;43.198;0.118;2023-04-03T09:43:34;5.72;;;3.40;;
76437;SDS011;65273;43.198;0.118;2023-04-03T09:46:24;5.70;;;3.75;;
76437;SDS011;65273;43.198;0.118;2023-04-03T09:48:51;5.75;;;3.70;;
76437;SDS011;65273;43.198;0.118;2023-04-03T09:51:21;4.78;;;3.20;;
76437;SDS011;65273;43.198;0.118;2023-04-03T09:53:51;5.30;;;3.35;;
76437;SDS011;65273;43.198;0.118;2023-04-03T09:58:43;4.72;;;3.95;;
76437;SDS011;65273;43.198;0.118;2023-04-03T10:01:23;5.82;;;4.00;;
76437;SDS011;65273;43.198;0.118;2023-04-03T10:06:29;9.13;;;4.70;;
76437;SDS011;65273;43.198;0.118;2023-04-03T10:09:03;6.88;;;4.40;;
76437;SDS011;65273;43.198;0.118;2023-04-03T10:11:31;5.78;;;3.85;;
76437;SDS011;65273;43.198;0.118;2023-04-03T10:13:57;6.28;;;4.47;;
76437;SDS011;65273;43.198;0.118;2023-04-03T10:16:27;6.18;;;4.40;;
76437;SDS011;65273;43.198;0.118;2023-04-03T10:21:45;4.90;;;4.13;;
76437;SDS011;65273;43.198;0.118;2023-04-03T10:32:14;6.28;;;4.57;;
76437;SDS011;65273;43.198;0.118;2023-04-03T10:35:02;7.13;;;4.20;;
76437;SDS011;65273;43.198;0.118;2023-04-03T10:40:46;9.40;;;5.20;;
76437;SDS011;65273;43.198;0.118;2023-04-03T10:43:32;6.78;;;4.82;;
76437;SDS011;65273;43.198;0.118;2023-04-03T10:53:47;4.75;;;4.30;;
76437;SDS011;65273;43.198;0.118;2023-04-03T10:56:19;6.93;;;4.60;;
76437;SDS011;65273;43.198;0.118;2023-04-03T10:59:02;5.90;;;4.20;;
76437;SDS011;65273;43.198;0.118;2023-04-03T11:01:39;5.38;;;2.78;;
76437;SDS011;65273;43.198;0.118;2023-04-03T11:04:06;2.40;;;2.20;;
76437;SDS011;65273;43.198;0.118;2023-04-03T11:06:37;3.58;;;2.38;;
76437;SDS011;65273;43.198;0.118;2023-04-03T11:09:28;4.13;;;2.53;;
76437;SDS011;65273;43.198;0.118;2023-04-03T11:12:06;3.75;;;2.67;;
76437;SDS011;65273;43.198;0.118;2023-04-03T11:14:55;2.60;;;2.40;;
76437;SDS011;65273;43.198;0.118;2023-04-03T11:17:24;3.00;;;2.80;;
76437;SDS011;65273;43.198;0.118;2023-04-03T11:23:00;3.55;;;2.38;;
76437;SDS011;65273;43.198;0.118;2023-04-03T11:25:26;3.28;;;2.67;;
76437;SDS011;65273;43.198;0.118;2023-04-03T11:27:59;2.63;;;2.42;;
76437;SDS011;65273;43.198;0.118;2023-04-03T11:33:03;3.03;;;2.65;;
76437;SDS011;65273;43.198;0.118;2023-04-03T11:35:30;2.78;;;2.35;;
76437;SDS011;65273;43.198;0.118;2023-04-03T11:37:56;3.15;;;2.40;;
76437;SDS011;65273;43.198;0.118;2023-04-03T11:40:28;3.67;;;2.30;;
76437;SDS011;65273;43.198;0.118;2023-04-03T11:43:06;2.50;;;2.30;;
76437;SDS011;65273;43.198;0.118;2023-04-03T11:51:00;4.35;;;2.13;;
76437;SDS011;65273;43.198;0.118;2023-04-03T11:53:39;2.60;;;2.13;;
76437;SDS011;65273;43.198;0.118;2023-04-03T12:04:14;2.78;;;2.05;;
76437;SDS011;65273;43.198;0.118;2023-04-03T12:09:26;2.20;;;1.45;;
76437;SDS011;65273;43.198;0.118;2023-04-03T12:11:59;1.80;;;1.70;;
76437;SDS011;65273;43.198;0.118;2023-04-03T12:14:26;1.60;;;1.50;;
76437;SDS011;65273;43.198;0.118;2023-04-03T12:16:53;3.03;;;1.90;;
76437;SDS011;65273;43.198;0.118;2023-04-03T12:19:37;2.80;;;1.88;;
76437;SDS011;65273;43.198;0.118;2023-04-03T12:22:12;2.35;;;1.60;;
76437;SDS011;65273;43.198;0.118;2023-04-03T12:24:41;2.05;;;1.50;;
76437;SDS011;65273;43.198;0.118;2023-04-03T12:27:25;2.63;;;1.83;;
76437;SDS011;65273;43.198;0.118;2023-04-03T12:29:57;2.65;;;1.67;;
76437;SDS011;65273;43.198;0.118;2023-04-03T12:32:37;1.63;;;1.52;;
76437;SDS011;65273;43.198;0.118;2023-04-03T12:35:17;2.10;;;1.40;;
76437;SDS011;65273;43.198;0.118;2023-04-03T12:38:13;1.73;;;1.33;;
76437;SDS011;65273;43.198;0.118;2023-04-03T12:50:59;4.47;;;1.52;;
76437;SDS011;65273;43.198;0.118;2023-04-03T12:53:25;3.38;;;1.70;;
76437;SDS011;65273;43.198;0.118;2023-04-03T12:55:55;1.80;;;1.40;;
76437;SDS011;65273;43.198;0.118;2023-04-03T12:58:22;1.90;;;1.67;;
76437;SDS011;65273;43.198;0.118;2023-04-03T13:01:03;1.75;;;1.65;;
76437;SDS011;65273;43.198;0.118;2023-04-03T13:03:35;4.70;;;1.65;;
76437;SDS011;65273;43.198;0.118;2023-04-03T13:06:03;2.75;;;1.40;;
76437;SDS011;65273;43.198;0.118;2023-04-03T13:08:29;2.50;;;1.52;;
76437;SDS011;65273;43.198;0.118;2023-04-03T13:10:57;3.03;;;1.67;;
76437;SDS011;65273;43.198;0.118;2023-04-03T13:13:24;1.80;;;1.40;;
76437;SDS011;65273;43.198;0.118;2023-04-03T13:15:51;3.20;;;1.40;;
76437;SDS011;65273;43.198;0.118;2023-04-03T13:18:22;1.73;;;1.63;;
76437;SDS011;65273;43.198;0.118;2023-04-03T13:20:48;3.05;;;1.50;;
76437;SDS011;65273;43.198;0.118;2023-04-03T13:23:14;1.67;;;1.30;;
76437;SDS011;65273;43.198;0.118;2023-04-03T13:25:43;1.88;;;1.30;;
76437;SDS011;65273;43.198;0.118;2023-04-03T13:28:10;2.53;;;1.30;;
76437;SDS011;65273;43.198;0.118;2023-04-03T13:30:38;3.00;;;1.20;;
76437;SDS011;65273;43.198;0.118;2023-04-03T13:33:04;3.63;;;1.30;;
76437;SDS011;65273;43.198;0.118;2023-04-03T13:38:21;2.30;;;1.30;;
76437;SDS011;65273;43.198;0.118;2023-04-03T13:40:52;4.15;;;1.10;;
76437;SDS011;65273;43.198;0.118;2023-04-03T13:43:27;2.00;;;1.30;;
76437;SDS011;65273;43.198;0.118;2023-04-03T13:45:55;1.40;;;1.30;;
76437;SDS011;65273;43.198;0.118;2023-04-03T13:48:21;2.55;;;1.50;;
76437;SDS011;65273;43.198;0.118;2023-04-03T13:50:55;1.27;;;1.17;;
76437;SDS011;65273;43.198;0.118;2023-04-03T13:53:24;3.80;;;1.20;;
76437;SDS011;65273;43.198;0.118;2023-04-03T13:55:55;2.10;;;1.13;;
76437;SDS011;65273;43.198;0.118;2023-04-03T13:58:23;2.00;;;1.20;;
76437;SDS011;65273;43.198;0.118;2023-04-03T14:03:45;1.10;;;1.00;;
76437;SDS011;65273;43.198;0.118;2023-04-03T14:06:16;2.90;;;1.30;;
76437;SDS011;65273;43.198;0.118;2023-04-03T14:08:43;1.45;;;1.05;;
76437;SDS011;65273;43.198;0.118;2023-04-03T14:11:10;1.17;;;0.98;;
76437;SDS011;65273;43.198;0.118;2023-04-03T14:13:39;1.10;;;1.10;;
76437;SDS011;65273;43.198;0.118;2023-04-03T14:16:04;0.73;;;0.73;;
76437;SDS011;65273;43.198;0.118;2023-04-03T14:18:30;1.05;;;0.95;;
76437;SDS011;65273;43.198;0.118;2023-04-03T14:20:55;1.13;;;0.77;;
76437;SDS011;65273;43.198;0.118;2023-04-03T14:23:20;1.73;;;0.90;;
76437;SDS011;65273;43.198;0.118;2023-04-03T14:25:46;1.13;;;0.90;;
76437;SDS011;65273;43.198;0.118;2023-04-03T14:28:21;0.90;;;0.90;;
76437;SDS011;65273;43.198;0.118;2023-04-03T14:30:47;2.55;;;1.00;;
76437;SDS011;65273;43.198;0.118;2023-04-03T14:33:14;1.00;;;0.80;;
76437;SDS011;65273;43.198;0.118;2023-04-03T14:35:39;2.30;;;1.10;;
76437;SDS011;65273;43.198;0.118;2023-04-03T14:38:09;1.42;;;1.00;;
76437;SDS011;65273;43.198;0.118;2023-04-03T14:40:45;1.35;;;1.00;;
76437;SDS011;65273;43.198;0.118;2023-04-03T14:43:12;1.77;;;1.10;;
76437;SDS011;65273;43.198;0.118;2023-04-03T14:45:38;1.25;;;1.00;;
76437;SDS011;65273;43.198;0.118;2023-04-03T14:48:03;1.65;;;0.93;;
76437;SDS011;65273;43.198;0.118;2023-04-03T14:50:28;0.90;;;0.90;;
76437;SDS011;65273;43.198;0.118;2023-04-03T14:52:56;3.05;;;1.23;;
76437;SDS011;65273;43.198;0.118;2023-04-03T14:55:23;2.45;;;0.90;;
76437;SDS011;65273;43.198;0.118;2023-04-03T14:57:49;1.73;;;1.15;;
76437;SDS011;65273;43.198;0.118;2023-04-03T15:00:15;1.35;;;0.90;;
76437;SDS011;65273;43.198;0.118;2023-04-03T15:02:41;1.25;;;1.00;;
76437;SDS011;65273;43.198;0.118;2023-04-03T15:05:08;1.95;;;1.20;;
76437;SDS011;65273;43.198;0.118;2023-04-03T15:07:34;1.52;;;1.10;;
76437;SDS011;65273;43.198;0.118;2023-04-03T15:10:09;1.15;;;1.00;;
76437;SDS011;65273;43.198;0.118;2023-04-03T15:12:38;1.30;;;1.10;;
76437;SDS011;65273;43.198;0.118;2023-04-03T15:15:04;1.50;;;1.00;;
76437;SDS011;65273;43.198;0.118;2023-04-03T15:17:29;1.30;;;1.00;;
76437;SDS011;65273;43.198;0.118;2023-04-03T15:19:54;1.73;;;0.85;;
76437;SDS011;65273;43.198;0.118;2023-04-03T15:22:20;1.35;;;0.93;;
76437;SDS011;65273;43.198;0.118;2023-04-03T15:24:46;1.55;;;1.10;;
76437;SDS011;65273;43.198;0.118;2023-04-03T15:27:11;2.28;;;1.00;;
76437;SDS011;65273;43.198;0.118;2023-04-03T15:29:37;1.00;;;0.90;;
76437;SDS011;65273;43.198;0.118;2023-04-03T15:32:03;1.13;;;0.80;;
76437;SDS011;65273;43.198;0.118;2023-04-03T15:34:29;0.98;;;0.70;;
76437;SDS011;65273;43.198;0.118;2023-04-03T15:36:54;0.85;;;0.85;;
76437;SDS011;65273;43.198;0.118;2023-04-03T15:39:20;4.03;;;0.90;;
76437;SDS011;65273;43.198;0.118;2023-04-03T15:41:46;0.70;;;0.70;;
76437;SDS011;65273;43.198;0.118;2023-04-03T15:44:11;2.05;;;0.73;;
76437;SDS011;65273;43.198;0.118;2023-04-03T15:46:38;2.30;;;0.70;;
76437;SDS011;65273;43.198;0.118;2023-04-03T15:49:03;1.00;;;0.90;;
76437;SDS011;65273;43.198;0.118;2023-04-03T15:51:29;2.78;;;0.70;;
76437;SDS011;65273;43.198;0.118;2023-04-03T15:53:55;2.53;;;0.93;;
76437;SDS011;65273;43.198;0.118;2023-04-03T15:56:20;3.85;;;1.70;;
76437;SDS011;65273;43.198;0.118;2023-04-03T15:58:46;0.77;;;0.77;;
76437;SDS011;65273;43.198;0.118;2023-04-03T16:01:11;3.72;;;0.90;;
76437;SDS011;65273;43.198;0.118;2023-04-03T16:03:37;0.80;;;0.80;;
76437;SDS011;65273;43.198;0.118;2023-04-03T16:06:08;0.70;;;0.70;;
76437;SDS011;65273;43.198;0.118;2023-04-03T16:08:34;1.77;;;0.98;;
76437;SDS011;65273;43.198;0.118;2023-04-03T16:11:01;1.70;;;1.17;;
76437;SDS011;65273;43.198;0.118;2023-04-03T16:13:27;1.48;;;1.30;;
76437;SDS011;65273;43.198;0.118;2023-04-03T16:15:52;2.08;;;1.40;;
76437;SDS011;65273;43.198;0.118;2023-04-03T16:18:18;1.45;;;1.00;;